sensor_id;sensor_type;location;lat;lon;timestamp;pressure;altitude;pressure_sealevel;temperature;humidity
21234;BME280;10774;42.178;26.578;2023-02-18T00:01:21;100777.88;;;5.15;100.00
21234;BME280;10774;42.178;26.578;2023-02-18T00:03:47;100777.00;;;5.14;100.00
21234;BME280;10774;42.178;26.578;2023-02-18T00:06:32;100792.69;;;5.55;100.00
21234;BME280;10774;42.178;26.578;2023-02-18T00:08:59;100783.97;;;5.49;100.00
21234;BME280;10774;42.178;26.578;2023-02-18T00:11:27;100782.06;;;5.53;100.00
21234;BME280;10774;42.178;26.578;2023-02-18T00:13:58;100770.44;;;5.26;100.00
21234;BME280;10774;42.178;26.578;2023-02-18T00:16:25;100784.03;;;5.46;100.00
21234;BME280;10774;42.178;26.578;2023-02-18T00:18:54;100784.72;;;5.53;100.00
21234;BME280;10774;42.178;26.578;2023-02-18T00:21:21;100770.97;;;5.39;100.00
21234;BME280;10774;42.178;26.578;2023-02-18T00:23:46;100769.78;;;5.49;100.00
21234;BME280;10774;42.178;26.578;2023-02-18T00:26:13;100774.31;;;5.45;100.00
21234;BME280;10774;42.178;26.578;2023-02-18T00:28:39;100755.97;;;5.05;100.00
21234;BME280;10774;42.178;26.578;2023-02-18T00:31:10;100725.38;;;4.90;100.00
21234;BME280;10774;42.178;26.578;2023-02-18T00:33:36;100730.19;;;4.76;100.00
21234;BME280;10774;42.178;26.578;2023-02-18T00:36:09;100736.00;;;4.90;100.00
21234;BME280;10774;42.178;26.578;2023-02-18T00:38:35;100708.19;;;5.01;100.00
21234;BME280;10774;42.178;26.578;2023-02-18T00:41:01;100724.56;;;5.18;100.00
21234;BME280;10774;42.178;26.578;2023-02-18T00:43:27;100720.59;;;5.31;100.00
21234;BME280;10774;42.178;26.578;2023-02-18T00:45:52;100691.69;;;5.19;100.00
21234;BME280;10774;42.178;26.578;2023-02-18T00:48:18;100697.09;;;5.16;100.00
21234;BME280;10774;42.178;26.578;2023-02-18T00:50:44;100703.47;;;5.12;100.00
21234;BME280;10774;42.178;26.578;2023-02-18T00:53:09;100692.88;;;5.09;100.00
21234;BME280;10774;42.178;26.578;2023-02-18T00:55:39;100692.19;;;5.02;100.00
21234;BME280;10774;42.178;26.578;2023-02-18T00:58:05;100657.25;;;4.54;100.00
21234;BME280;10774;42.178;26.578;2023-02-18T01:00:30;100680.78;;;4.67;100.00
21234;BME280;10774;42.178;26.578;2023-02-18T01:02:56;100675.38;;;4.70;100.00
21234;BME280;10774;42.178;26.578;2023-02-18T01:05:21;100677.47;;;4.90;100.00
21234;BME280;10774;42.178;26.578;2023-02-18T01:07:47;100674.88;;;4.56;100.00
21234;BME280;10774;42.178;26.578;2023-02-18T01:10:12;100677.88;;;4.44;100.00
21234;BME280;10774;42.178;26.578;2023-02-18T01:12:38;100654.72;;;4.49;100.00
21234;BME280;10774;42.178;26.578;2023-02-18T01:15:05;100626.09;;;4.26;100.00
21234;BME280;10774;42.178;26.578;2023-02-18T01:17:31;100678.34;;;4.60;100.00
21234;BME280;10774;42.178;26.578;2023-02-18T01:19:56;100670.81;;;4.76;100.00
21234;BME280;10774;42.178;26.578;2023-02-18T01:22:22;100661.78;;;4.81;100.00
21234;BME280;10774;42.178;26.578;2023-02-18T01:24:47;100644.75;;;4.87;100.00
21234;BME280;10774;42.178;26.578;2023-02-18T01:27:13;100641.13;;;4.60;100.00
21234;BME280;10774;42.178;26.578;2023-02-18T01:29:38;100639.81;;;4.75;100.00
21234;BME280;10774;42.178;26.578;2023-02-18T01:32:04;100634.31;;;4.50;100.00
21234;BME280;10774;42.178;26.578;2023-02-18T01:34:29;100626.50;;;4.43;100.00
21234;BME280;10774;42.178;26.578;2023-02-18T01:36:55;100632.91;;;4.67;100.00
21234;BME280;10774;42.178;26.578;2023-02-18T01:39:20;100624.06;;;4.67;100.00
21234;BME280;10774;42.178;26.578;2023-02-18T01:41:46;100636.78;;;4.87;100.00
21234;BME280;10774;42.178;26.578;2023-02-18T01:44:25;100636.84;;;4.84;100.00
21234;BME280;10774;42.178;26.578;2023-02-18T01:46:52;100620.72;;;4.60;100.00
21234;BME280;10774;42.178;26.578;2023-02-18T01:49:27;100637.53;;;4.61;100.00
21234;BME280;10774;42.178;26.578;2023-02-18T01:52:01;100622.81;;;4.49;100.00
21234;BME280;10774;42.178;26.578;2023-02-18T01:54:29;100633.78;;;4.68;100.00
21234;BME280;10774;42.178;26.578;2023-02-18T01:57:06;100621.13;;;4.76;100.00
21234;BME280;10774;42.178;26.578;2023-02-18T01:59:36;100618.34;;;4.50;100.00
21234;BME280;10774;42.178;26.578;2023-02-18T02:02:03;100633.38;;;4.51;100.00
21234;BME280;10774;42.178;26.578;2023-02-18T02:04:28;100629.50;;;4.62;100.00
21234;BME280;10774;42.178;26.578;2023-02-18T02:06:54;100621.84;;;4.52;100.00
21234;BME280;10774;42.178;26.578;2023-02-18T02:09:22;100611.50;;;4.72;100.00
21234;BME280;10774;42.178;26.578;2023-02-18T02:17:51;100638.16;;;4.70;100.00
21234;BME280;10774;42.178;26.578;2023-02-18T02:34:44;100646.16;;;4.38;100.00
21234;BME280;10774;42.178;26.578;2023-02-18T02:37:44;100645.84;;;4.16;100.00
21234;BME280;10774;42.178;26.578;2023-02-18T02:48:38;100654.97;;;4.06;100.00
21234;BME280;10774;42.178;26.578;2023-02-18T02:51:10;100652.81;;;4.20;100.00
21234;BME280;10774;42.178;26.578;2023-02-18T02:53:40;100642.72;;;4.34;100.00
21234;BME280;10774;42.178;26.578;2023-02-18T02:56:13;100645.53;;;4.28;100.00
21234;BME280;10774;42.178;26.578;2023-02-18T02:58:38;100650.25;;;4.50;100.00
21234;BME280;10774;42.178;26.578;2023-02-18T03:04:24;100660.28;;;4.71;100.00
21234;BME280;10774;42.178;26.578;2023-02-18T03:07:05;100645.06;;;4.76;100.00
21234;BME280;10774;42.178;26.578;2023-02-18T03:09:54;100659.66;;;4.92;100.00
21234;BME280;10774;42.178;26.578;2023-02-18T03:12:38;100660.34;;;4.99;100.00
21234;BME280;10774;42.178;26.578;2023-02-18T03:21:04;100653.91;;;5.08;100.00
21234;BME280;10774;42.178;26.578;2023-02-18T03:23:36;100659.97;;;5.13;100.00
21234;BME280;10774;42.178;26.578;2023-02-18T03:26:03;100646.31;;;4.94;100.00
21234;BME280;10774;42.178;26.578;2023-02-18T03:28:30;100654.59;;;4.83;100.00
21234;BME280;10774;42.178;26.578;2023-02-18T03:31:09;100643.19;;;4.80;100.00
21234;BME280;10774;42.178;26.578;2023-02-18T03:33:42;100648.34;;;4.55;100.00
21234;BME280;10774;42.178;26.578;2023-02-18T03:36:09;100624.28;;;4.59;100.00
21234;BME280;10774;42.178;26.578;2023-02-18T03:38:45;100640.38;;;4.55;100.00
21234;BME280;10774;42.178;26.578;2023-02-18T03:41:13;100635.53;;;4.38;100.00
21234;BME280;10774;42.178;26.578;2023-02-18T03:43:40;100627.75;;;4.30;100.00
21234;BME280;10774;42.178;26.578;2023-02-18T03:46:06;100640.13;;;4.31;100.00
21234;BME280;10774;42.178;26.578;2023-02-18T03:48:31;100645.50;;;3.96;100.00
21234;BME280;10774;42.178;26.578;2023-02-18T03:50:57;100650.00;;;4.26;100.00
21234;BME280;10774;42.178;26.578;2023-02-18T03:53:22;100644.19;;;4.44;100.00
21234;BME280;10774;42.178;26.578;2023-02-18T03:55:47;100624.72;;;4.44;100.00
21234;BME280;10774;42.178;26.578;2023-02-18T03:58:13;100632.72;;;4.42;100.00
21234;BME280;10774;42.178;26.578;2023-02-18T04:00:38;100647.63;;;4.17;100.00
21234;BME280;10774;42.178;26.578;2023-02-18T04:03:04;100645.59;;;4.25;100.00
21234;BME280;10774;42.178;26.578;2023-02-18T04:05:29;100630.00;;;4.13;100.00
21234;BME280;10774;42.178;26.578;2023-02-18T04:07:54;100644.44;;;4.03;100.00
21234;BME280;10774;42.178;26.578;2023-02-18T04:10:20;100668.94;;;4.14;100.00
21234;BME280;10774;42.178;26.578;2023-02-18T04:12:47;100659.88;;;4.21;100.00
21234;BME280;10774;42.178;26.578;2023-02-18T04:15:12;100662.97;;;3.70;100.00
21234;BME280;10774;42.178;26.578;2023-02-18T04:17:38;100657.97;;;3.56;100.00
21234;BME280;10774;42.178;26.578;2023-02-18T04:20:04;100639.94;;;3.71;100.00
21234;BME280;10774;42.178;26.578;2023-02-18T04:22:30;100648.47;;;3.83;100.00
21234;BME280;10774;42.178;26.578;2023-02-18T04:24:55;100656.97;;;3.98;100.00
21234;BME280;10774;42.178;26.578;2023-02-18T04:27:21;100648.16;;;3.96;100.00
21234;BME280;10774;42.178;26.578;2023-02-18T04:29:46;100650.13;;;3.87;100.00
21234;BME280;10774;42.178;26.578;2023-02-18T04:32:11;100626.94;;;3.58;100.00
21234;BME280;10774;42.178;26.578;2023-02-18T04:34:37;100655.00;;;3.68;100.00
21234;BME280;10774;42.178;26.578;2023-02-18T04:37:02;100654.50;;;3.53;100.00
21234;BME280;10774;42.178;26.578;2023-02-18T04:39:27;100637.41;;;3.66;100.00
21234;BME280;10774;42.178;26.578;2023-02-18T04:41:53;100630.78;;;3.82;100.00
21234;BME280;10774;42.178;26.578;2023-02-18T04:44:18;100624.50;;;3.51;100.00
21234;BME280;10774;42.178;26.578;2023-02-18T04:46:44;100624.06;;;3.67;100.00
21234;BME280;10774;42.178;26.578;2023-02-18T04:49:09;100634.44;;;3.78;100.00
21234;BME280;10774;42.178;26.578;2023-02-18T04:51:35;100630.25;;;3.70;100.00
21234;BME280;10774;42.178;26.578;2023-02-18T04:54:02;100620.56;;;3.67;100.00
21234;BME280;10774;42.178;26.578;2023-02-18T04:56:27;100607.91;;;3.77;100.00
21234;BME280;10774;42.178;26.578;2023-02-18T04:58:53;100633.16;;;3.59;100.00
21234;BME280;10774;42.178;26.578;2023-02-18T05:01:18;100627.44;;;3.00;100.00
21234;BME280;10774;42.178;26.578;2023-02-18T05:03:44;100651.06;;;2.70;100.00
21234;BME280;10774;42.178;26.578;2023-02-18T05:06:10;100634.72;;;2.02;100.00
21234;BME280;10774;42.178;26.578;2023-02-18T05:08:35;100653.63;;;2.75;100.00
21234;BME280;10774;42.178;26.578;2023-02-18T05:11:05;100662.81;;;2.99;100.00
21234;BME280;10774;42.178;26.578;2023-02-18T05:13:31;100640.34;;;3.17;100.00
21234;BME280;10774;42.178;26.578;2023-02-18T05:15:56;100670.81;;;3.37;100.00
21234;BME280;10774;42.178;26.578;2023-02-18T05:18:22;100671.97;;;3.63;100.00
21234;BME280;10774;42.178;26.578;2023-02-18T05:20:47;100643.63;;;3.65;100.00
21234;BME280;10774;42.178;26.578;2023-02-18T05:23:13;100670.59;;;3.47;100.00
21234;BME280;10774;42.178;26.578;2023-02-18T05:25:38;100666.28;;;3.78;100.00
21234;BME280;10774;42.178;26.578;2023-02-18T05:28:04;100655.81;;;3.72;100.00
21234;BME280;10774;42.178;26.578;2023-02-18T05:30:29;100659.25;;;3.77;100.00
21234;BME280;10774;42.178;26.578;2023-02-18T05:32:55;100663.84;;;4.05;100.00
21234;BME280;10774;42.178;26.578;2023-02-18T05:35:20;100646.25;;;4.01;100.00
21234;BME280;10774;42.178;26.578;2023-02-18T05:37:46;100650.22;;;4.18;100.00
21234;BME280;10774;42.178;26.578;2023-02-18T05:40:11;100622.00;;;3.80;100.00
21234;BME280;10774;42.178;26.578;2023-02-18T05:42:37;100646.56;;;3.88;100.00
21234;BME280;10774;42.178;26.578;2023-02-18T05:45:02;100659.81;;;4.24;100.00
21234;BME280;10774;42.178;26.578;2023-02-18T05:47:28;100652.41;;;4.35;100.00
21234;BME280;10774;42.178;26.578;2023-02-18T05:49:53;100638.94;;;4.41;100.00
21234;BME280;10774;42.178;26.578;2023-02-18T05:52:20;100659.06;;;4.83;100.00
21234;BME280;10774;42.178;26.578;2023-02-18T05:54:46;100664.19;;;4.90;100.00
21234;BME280;10774;42.178;26.578;2023-02-18T05:57:15;100657.94;;;4.91;100.00
21234;BME280;10774;42.178;26.578;2023-02-18T05:59:40;100643.97;;;4.83;100.00
21234;BME280;10774;42.178;26.578;2023-02-18T06:02:06;100651.16;;;4.80;100.00
21234;BME280;10774;42.178;26.578;2023-02-18T06:04:32;100657.91;;;5.21;100.00
21234;BME280;10774;42.178;26.578;2023-02-18T06:06:57;100659.63;;;5.51;100.00
21234;BME280;10774;42.178;26.578;2023-02-18T06:09:23;100629.75;;;5.70;100.00
21234;BME280;10774;42.178;26.578;2023-02-18T06:11:48;100652.72;;;6.00;100.00
21234;BME280;10774;42.178;26.578;2023-02-18T06:14:14;100650.03;;;6.27;100.00
21234;BME280;10774;42.178;26.578;2023-02-18T06:16:39;100663.22;;;6.57;100.00
21234;BME280;10774;42.178;26.578;2023-02-18T06:19:05;100659.13;;;6.71;100.00
21234;BME280;10774;42.178;26.578;2023-02-18T06:21:30;100645.22;;;6.87;100.00
21234;BME280;10774;42.178;26.578;2023-02-18T06:23:55;100637.16;;;6.88;100.00
21234;BME280;10774;42.178;26.578;2023-02-18T06:26:21;100642.59;;;7.08;100.00
21234;BME280;10774;42.178;26.578;2023-02-18T06:28:46;100651.38;;;7.12;100.00
21234;BME280;10774;42.178;26.578;2023-02-18T06:31:13;100647.44;;;7.21;100.00
21234;BME280;10774;42.178;26.578;2023-02-18T06:33:38;100645.44;;;7.04;100.00
21234;BME280;10774;42.178;26.578;2023-02-18T06:36:06;100653.84;;;7.17;100.00
21234;BME280;10774;42.178;26.578;2023-02-18T06:38:34;100653.13;;;7.35;100.00
21234;BME280;10774;42.178;26.578;2023-02-18T06:40:59;100640.31;;;7.43;100.00
21234;BME280;10774;42.178;26.578;2023-02-18T06:43:25;100650.03;;;7.68;99.66
21234;BME280;10774;42.178;26.578;2023-02-18T06:45:50;100632.00;;;7.73;98.48
21234;BME280;10774;42.178;26.578;2023-02-18T06:48:16;100639.59;;;7.83;97.78
21234;BME280;10774;42.178;26.578;2023-02-18T06:50:41;100613.19;;;7.76;97.56
21234;BME280;10774;42.178;26.578;2023-02-18T06:53:07;100625.66;;;7.97;97.92
21234;BME280;10774;42.178;26.578;2023-02-18T06:55:32;100629.53;;;8.10;97.91
21234;BME280;10774;42.178;26.578;2023-02-18T06:57:58;100620.25;;;8.19;97.64
21234;BME280;10774;42.178;26.578;2023-02-18T07:00:23;100630.03;;;8.41;96.70
21234;BME280;10774;42.178;26.578;2023-02-18T07:02:49;100630.63;;;8.47;96.59
21234;BME280;10774;42.178;26.578;2023-02-18T07:05:15;100633.69;;;8.18;96.56
21234;BME280;10774;42.178;26.578;2023-02-18T07:07:40;100620.56;;;8.32;96.55
21234;BME280;10774;42.178;26.578;2023-02-18T07:10:06;100633.03;;;8.53;96.02
21234;BME280;10774;42.178;26.578;2023-02-18T07:12:32;100623.16;;;8.55;95.22
21234;BME280;10774;42.178;26.578;2023-02-18T07:14:58;100622.22;;;8.56;94.69
21234;BME280;10774;42.178;26.578;2023-02-18T07:17:24;100634.38;;;8.43;96.04
21234;BME280;10774;42.178;26.578;2023-02-18T07:19:49;100620.72;;;8.29;97.33
21234;BME280;10774;42.178;26.578;2023-02-18T07:22:15;100624.09;;;8.54;97.10
21234;BME280;10774;42.178;26.578;2023-02-18T07:24:41;100625.38;;;8.64;95.96
21234;BME280;10774;42.178;26.578;2023-02-18T07:27:06;100613.06;;;9.00;95.33
21234;BME280;10774;42.178;26.578;2023-02-18T07:29:32;100603.81;;;9.26;94.10
21234;BME280;10774;42.178;26.578;2023-02-18T07:31:57;100603.38;;;9.35;93.98
21234;BME280;10774;42.178;26.578;2023-02-18T07:34:23;100581.94;;;9.35;93.89
21234;BME280;10774;42.178;26.578;2023-02-18T07:36:48;100600.72;;;9.52;94.65
21234;BME280;10774;42.178;26.578;2023-02-18T07:39:14;100597.19;;;9.52;94.75
21234;BME280;10774;42.178;26.578;2023-02-18T07:41:39;100592.22;;;9.44;95.66
21234;BME280;10774;42.178;26.578;2023-02-18T07:44:04;100591.44;;;9.59;95.21
21234;BME280;10774;42.178;26.578;2023-02-18T07:46:30;100591.59;;;9.56;94.83
21234;BME280;10774;42.178;26.578;2023-02-18T07:48:56;100586.25;;;9.56;94.81
21234;BME280;10774;42.178;26.578;2023-02-18T07:51:22;100595.09;;;9.76;94.83
21234;BME280;10774;42.178;26.578;2023-02-18T07:53:47;100584.84;;;9.84;94.39
21234;BME280;10774;42.178;26.578;2023-02-18T07:56:12;100585.34;;;9.92;94.13
21234;BME280;10774;42.178;26.578;2023-02-18T07:58:38;100579.25;;;10.06;93.90
21234;BME280;10774;42.178;26.578;2023-02-18T08:01:08;100582.03;;;10.04;93.34
21234;BME280;10774;42.178;26.578;2023-02-18T08:03:35;100581.22;;;10.19;93.11
21234;BME280;10774;42.178;26.578;2023-02-18T08:06:01;100573.75;;;10.09;91.46
21234;BME280;10774;42.178;26.578;2023-02-18T08:08:29;100577.16;;;10.30;89.92
21234;BME280;10774;42.178;26.578;2023-02-18T08:10:57;100576.81;;;10.36;87.11
21234;BME280;10774;42.178;26.578;2023-02-18T08:13:23;100560.56;;;10.39;84.92
21234;BME280;10774;42.178;26.578;2023-02-18T08:15:49;100565.66;;;10.61;84.31
21234;BME280;10774;42.178;26.578;2023-02-18T08:18:17;100571.53;;;10.67;83.17
21234;BME280;10774;42.178;26.578;2023-02-18T08:20:44;100569.03;;;10.80;82.39
21234;BME280;10774;42.178;26.578;2023-02-18T08:23:12;100587.22;;;11.08;82.51
21234;BME280;10774;42.178;26.578;2023-02-18T08:25:38;100568.66;;;11.19;81.64
21234;BME280;10774;42.178;26.578;2023-02-18T08:28:04;100587.25;;;11.54;79.36
21234;BME280;10774;42.178;26.578;2023-02-18T08:30:29;100596.59;;;11.78;77.47
21234;BME280;10774;42.178;26.578;2023-02-18T08:32:56;100594.03;;;12.07;74.68
21234;BME280;10774;42.178;26.578;2023-02-18T08:35:22;100594.88;;;12.38;72.17
21234;BME280;10774;42.178;26.578;2023-02-18T08:37:47;100584.78;;;12.41;72.52
21234;BME280;10774;42.178;26.578;2023-02-18T08:40:13;100590.69;;;12.62;68.72
21234;BME280;10774;42.178;26.578;2023-02-18T08:42:39;100592.50;;;12.47;66.35
21234;BME280;10774;42.178;26.578;2023-02-18T08:45:05;100583.56;;;12.61;64.49
21234;BME280;10774;42.178;26.578;2023-02-18T08:47:31;100570.56;;;12.53;63.19
21234;BME280;10774;42.178;26.578;2023-02-18T08:49:56;100570.56;;;12.68;62.16
21234;BME280;10774;42.178;26.578;2023-02-18T08:52:22;100574.13;;;12.68;62.19
21234;BME280;10774;42.178;26.578;2023-02-18T08:54:48;100580.28;;;12.70;61.57
21234;BME280;10774;42.178;26.578;2023-02-18T08:57:13;100574.13;;;12.68;61.20
21234;BME280;10774;42.178;26.578;2023-02-18T08:59:39;100570.69;;;12.66;61.09
21234;BME280;10774;42.178;26.578;2023-02-18T09:02:04;100573.28;;;12.68;61.23
21234;BME280;10774;42.178;26.578;2023-02-18T09:04:30;100568.56;;;12.71;61.86
21234;BME280;10774;42.178;26.578;2023-02-18T09:06:56;100574.13;;;12.68;62.15
21234;BME280;10774;42.178;26.578;2023-02-18T09:09:21;100556.03;;;12.70;61.42
21234;BME280;10774;42.178;26.578;2023-02-18T09:11:47;100562.97;;;12.74;59.95
21234;BME280;10774;42.178;26.578;2023-02-18T09:14:13;100548.16;;;12.67;59.12
21234;BME280;10774;42.178;26.578;2023-02-18T09:16:40;100555.84;;;12.73;60.53
21234;BME280;10774;42.178;26.578;2023-02-18T09:19:06;100540.66;;;12.72;62.01
21234;BME280;10774;42.178;26.578;2023-02-18T09:21:32;100542.97;;;12.78;62.45
21234;BME280;10774;42.178;26.578;2023-02-18T09:23:58;100547.03;;;12.71;61.62
21234;BME280;10774;42.178;26.578;2023-02-18T09:26:23;100543.75;;;12.66;61.41
21234;BME280;10774;42.178;26.578;2023-02-18T09:28:51;100539.88;;;12.70;60.33
21234;BME280;10774;42.178;26.578;2023-02-18T09:31:19;100543.34;;;12.87;60.02
21234;BME280;10774;42.178;26.578;2023-02-18T09:33:51;100541.53;;;12.87;58.76
21234;BME280;10774;42.178;26.578;2023-02-18T09:36:17;100539.75;;;13.00;58.53
21234;BME280;10774;42.178;26.578;2023-02-18T09:38:44;100537.72;;;13.04;57.97
21234;BME280;10774;42.178;26.578;2023-02-18T09:41:52;100539.19;;;13.24;55.41
21234;BME280;10774;42.178;26.578;2023-02-18T09:47:02;100536.09;;;13.70;56.98
21234;BME280;10774;42.178;26.578;2023-02-18T09:49:32;100524.78;;;13.77;56.13
21234;BME280;10774;42.178;26.578;2023-02-18T09:52:06;100542.19;;;13.86;56.51
21234;BME280;10774;42.178;26.578;2023-02-18T09:54:35;100541.53;;;13.82;56.91
21234;BME280;10774;42.178;26.578;2023-02-18T09:57:02;100547.06;;;13.94;57.31
21234;BME280;10774;42.178;26.578;2023-02-18T09:59:29;100536.47;;;13.91;57.04
21234;BME280;10774;42.178;26.578;2023-02-18T10:01:55;100542.00;;;14.02;56.92
21234;BME280;10774;42.178;26.578;2023-02-18T10:04:43;100527.56;;;14.16;55.87
21234;BME280;10774;42.178;26.578;2023-02-18T10:07:20;100532.97;;;14.41;55.19
21234;BME280;10774;42.178;26.578;2023-02-18T10:09:50;100521.59;;;14.23;55.30
21234;BME280;10774;42.178;26.578;2023-02-18T10:12:19;100527.22;;;14.20;55.61
21234;BME280;10774;42.178;26.578;2023-02-18T10:14:59;100508.97;;;14.11;56.25
21234;BME280;10774;42.178;26.578;2023-02-18T10:17:28;100501.41;;;14.16;56.55
21234;BME280;10774;42.178;26.578;2023-02-18T10:19:55;100499.69;;;14.15;56.53
21234;BME280;10774;42.178;26.578;2023-02-18T10:22:23;100497.97;;;14.27;56.61
21234;BME280;10774;42.178;26.578;2023-02-18T10:24:52;100494.94;;;14.31;56.63
21234;BME280;10774;42.178;26.578;2023-02-18T10:27:38;100473.44;;;14.17;55.14
21234;BME280;10774;42.178;26.578;2023-02-18T10:32:42;100451.75;;;14.19;54.79
21234;BME280;10774;42.178;26.578;2023-02-18T10:41:20;100446.13;;;14.34;54.53
21234;BME280;10774;42.178;26.578;2023-02-18T10:43:58;100447.84;;;14.35;53.90
21234;BME280;10774;42.178;26.578;2023-02-18T10:46:47;100445.22;;;14.34;54.45
21234;BME280;10774;42.178;26.578;2023-02-18T10:49:29;100449.03;;;14.31;54.57
21234;BME280;10774;42.178;26.578;2023-02-18T10:52:02;100439.06;;;14.45;54.87
21234;BME280;10774;42.178;26.578;2023-02-18T10:54:49;100430.66;;;14.49;54.63
21234;BME280;10774;42.178;26.578;2023-02-18T10:57:19;100449.50;;;14.75;53.95
21234;BME280;10774;42.178;26.578;2023-02-18T11:02:37;100435.66;;;14.79;53.56
21234;BME280;10774;42.178;26.578;2023-02-18T11:05:23;100412.19;;;14.80;53.41
21234;BME280;10774;42.178;26.578;2023-02-18T11:07:53;100426.28;;;14.72;53.07
21234;BME280;10774;42.178;26.578;2023-02-18T11:10:28;100430.72;;;14.73;53.51
21234;BME280;10774;42.178;26.578;2023-02-18T11:13:05;100429.84;;;14.73;53.89
21234;BME280;10774;42.178;26.578;2023-02-18T11:15:31;100411.94;;;14.59;53.27
21234;BME280;10774;42.178;26.578;2023-02-18T11:18:11;100425.00;;;14.65;53.21
21234;BME280;10774;42.178;26.578;2023-02-18T11:20:38;100414.31;;;14.63;53.43
21234;BME280;10774;42.178;26.578;2023-02-18T11:25:33;100413.78;;;14.95;53.26
21234;BME280;10774;42.178;26.578;2023-02-18T11:28:01;100416.13;;;15.00;53.17
21234;BME280;10774;42.178;26.578;2023-02-18T11:30:44;100412.97;;;15.06;53.28
21234;BME280;10774;42.178;26.578;2023-02-18T11:33:19;100382.59;;;15.02;52.68
21234;BME280;10774;42.178;26.578;2023-02-18T11:35:56;100404.16;;;15.15;51.80
21234;BME280;10774;42.178;26.578;2023-02-18T11:38:26;100400.31;;;15.30;51.82
21234;BME280;10774;42.178;26.578;2023-02-18T11:40:55;100400.06;;;15.44;51.77
21234;BME280;10774;42.178;26.578;2023-02-18T11:43:26;100404.25;;;15.73;50.84
21234;BME280;10774;42.178;26.578;2023-02-18T11:46:09;100395.31;;;16.06;50.23
21234;BME280;10774;42.178;26.578;2023-02-18T11:48:35;100380.44;;;16.11;50.02
21234;BME280;10774;42.178;26.578;2023-02-18T11:51:02;100372.66;;;16.18;50.00
21234;BME280;10774;42.178;26.578;2023-02-18T11:53:37;100371.03;;;16.49;49.29
21234;BME280;10774;42.178;26.578;2023-02-18T11:56:09;100371.41;;;16.67;48.51
21234;BME280;10774;42.178;26.578;2023-02-18T11:58:43;100352.44;;;16.56;48.78
21234;BME280;10774;42.178;26.578;2023-02-18T12:11:51;100326.09;;;17.22;45.81
21234;BME280;10774;42.178;26.578;2023-02-18T12:14:19;100317.03;;;17.33;44.93
21234;BME280;10774;42.178;26.578;2023-02-18T12:43:30;100296.53;;;17.91;44.30
21234;BME280;10774;42.178;26.578;2023-02-18T12:57:33;100260.66;;;17.36;45.87
21234;BME280;10774;42.178;26.578;2023-02-18T13:00:30;100251.13;;;17.21;46.18
21234;BME280;10774;42.178;26.578;2023-02-18T13:03:31;100252.66;;;17.14;45.63
21234;BME280;10774;42.178;26.578;2023-02-18T13:11:56;100253.50;;;16.93;46.36
21234;BME280;10774;42.178;26.578;2023-02-18T13:14:32;100249.59;;;16.86;45.78
21234;BME280;10774;42.178;26.578;2023-02-18T13:17:02;100237.31;;;16.82;45.20
21234;BME280;10774;42.178;26.578;2023-02-18T13:19:46;100239.50;;;16.88;45.26
21234;BME280;10774;42.178;26.578;2023-02-18T13:22:14;100246.81;;;16.97;45.23
21234;BME280;10774;42.178;26.578;2023-02-18T13:24:45;100249.13;;;17.02;44.78
21234;BME280;10774;42.178;26.578;2023-02-18T13:32:50;100241.91;;;17.33;41.31
21234;BME280;10774;42.178;26.578;2023-02-18T13:35:23;100225.84;;;17.41;40.54
21234;BME280;10774;42.178;26.578;2023-02-18T13:38:11;100240.38;;;17.71;39.71
21234;BME280;10774;42.178;26.578;2023-02-18T13:40:38;100243.03;;;17.82;38.80
21234;BME280;10774;42.178;26.578;2023-02-18T13:43:29;100237.72;;;17.81;38.56
21234;BME280;10774;42.178;26.578;2023-02-18T13:51:31;100223.69;;;18.16;37.68
21234;BME280;10774;42.178;26.578;2023-02-18T13:57:04;100217.63;;;18.72;37.10
21234;BME280;10774;42.178;26.578;2023-02-18T14:02:33;100223.16;;;18.61;36.16
21234;BME280;10774;42.178;26.578;2023-02-18T14:25:49;100191.94;;;18.07;35.30
21234;BME280;10774;42.178;26.578;2023-02-18T14:31:05;100185.91;;;18.03;35.02
21234;BME280;10774;42.178;26.578;2023-02-18T14:33:34;100208.25;;;18.16;35.25
21234;BME280;10774;42.178;26.578;2023-02-18T14:47:39;100196.78;;;18.13;35.56
21234;BME280;10774;42.178;26.578;2023-02-18T14:50:12;100193.38;;;18.11;35.94
21234;BME280;10774;42.178;26.578;2023-02-18T14:52:43;100186.94;;;18.12;35.99
21234;BME280;10774;42.178;26.578;2023-02-18T14:55:25;100164.94;;;18.15;35.89
21234;BME280;10774;42.178;26.578;2023-02-18T14:58:05;100155.31;;;18.01;36.11
21234;BME280;10774;42.178;26.578;2023-02-18T15:00:40;100179.63;;;18.12;35.93
21234;BME280;10774;42.178;26.578;2023-02-18T15:03:26;100189.34;;;18.05;36.26
21234;BME280;10774;42.178;26.578;2023-02-18T15:05:52;100164.44;;;17.90;36.28
21234;BME280;10774;42.178;26.578;2023-02-18T15:08:25;100174.03;;;17.94;36.18
21234;BME280;10774;42.178;26.578;2023-02-18T15:10:54;100185.91;;;17.93;36.32
21234;BME280;10774;42.178;26.578;2023-02-18T15:13:44;100194.19;;;17.92;36.52
21234;BME280;10774;42.178;26.578;2023-02-18T15:16:19;100187.00;;;17.81;36.99
21234;BME280;10774;42.178;26.578;2023-02-18T15:18:56;100173.16;;;17.54;36.96
21234;BME280;10774;42.178;26.578;2023-02-18T15:21:35;100194.31;;;17.60;37.12
21234;BME280;10774;42.178;26.578;2023-02-18T15:24:24;100195.44;;;17.47;37.21
21234;BME280;10774;42.178;26.578;2023-02-18T15:26:51;100185.38;;;17.38;37.37
21234;BME280;10774;42.178;26.578;2023-02-18T15:29:23;100190.03;;;17.27;37.50
21234;BME280;10774;42.178;26.578;2023-02-18T15:31:53;100203.88;;;17.23;37.77